createdAt,value
2019-02-26T00:20:18.968Z,81.00
2019-02-26T00:50:23.179Z,82.80
2019-02-26T01:20:27.509Z,85.00
2019-02-26T01:50:33.850Z,86.70
2019-02-26T02:20:40.007Z,86.80
2019-02-26T02:50:43.809Z,85.80
2019-02-26T03:20:48.160Z,90.60
2019-02-26T03:50:51.568Z,90.20
2019-02-26T04:20:56.782Z,89.60
2019-02-26T04:51:00.043Z,89.80
2019-02-26T05:21:05.229Z,91.10
2019-02-26T05:51:10.881Z,86.90
2019-02-26T06:21:15.937Z,90.20
2019-02-26T06:51:19.155Z,91.10
2019-02-26T07:21:23.805Z,86.80
2019-02-26T07:51:27.234Z,81.60
2019-02-26T08:21:30.616Z,79.40
2019-02-26T08:51:34.031Z,75.20
2019-02-26T09:21:41.749Z,70.50
2019-02-26T09:51:42.497Z,65.80
2019-02-26T10:21:45.964Z,63.60
2019-02-26T10:51:49.386Z,69.90
2019-02-26T11:21:55.982Z,69.30
2019-02-26T11:51:57.883Z,63.90
2019-02-26T12:22:03.599Z,63.50
2019-02-26T12:52:06.389Z,64.90
2019-02-26T13:22:13.734Z,69.60
2019-02-26T13:52:14.962Z,69.20
2019-02-26T14:22:18.362Z,68.00
2019-02-26T14:52:21.798Z,70.90
2019-02-26T15:22:25.305Z,69.00
2019-02-26T15:52:29.980Z,72.20
2019-02-26T16:22:33.405Z,74.90
2019-02-26T16:52:36.818Z,79.70
2019-02-26T17:22:41.028Z,83.10
2019-02-26T17:52:45.030Z,84.20
2019-02-26T18:22:48.461Z,86.90
2019-02-26T18:52:51.961Z,87.10
2019-02-26T19:22:58.525Z,85.40
2019-02-26T19:53:02.518Z,87.70
2019-02-26T20:23:06.235Z,91.30
2019-02-26T20:53:09.898Z,93.90
2019-02-26T21:23:13.322Z,93.40
2019-02-26T21:53:16.747Z,95.70
2019-02-26T22:23:20.161Z,95.50
2019-02-26T22:53:23.582Z,96.80
2019-02-26T23:23:26.998Z,95.30
2019-02-26T23:53:33.924Z,94.80
